Time;durP1;ratioP1;P1;durP2;ratioP2;P2;SDS_P1;SDS_P2;PMS_P1;PMS_P2;Temp;Humidity;BMP_temperature;BMP_pressure;BME280_temperature;BME280_humidity;BME280_pressure;Samples;Min_cycle;Max_cycle;Signal;HPM_P1;HPM_P2
2022/06/05 00:02:38;;;;;;;1229.68;999.90;;;19.00;99.90;;;;;;5014704;28;20252;-74
2022/06/05 00:05:27;;;;;;;1212.10;999.90;;;19.00;99.90;;;;;;5018457;28;20202;-74
2022/06/05 00:08:14;;;;;;;1229.20;999.90;;;19.00;99.90;;;;;;5018804;28;20221;-73
2022/06/05 00:10:55;;;;;;;1232.15;999.90;;;18.90;99.90;;;;;;5022099;28;20219;-72
2022/06/05 00:13:27;;;;;;;1221.32;999.90;;;18.90;99.90;;;;;;5021193;28;20190;-73
2022/06/05 00:15:52;;;;;;;1232.75;999.90;;;18.90;99.90;;;;;;5024068;28;20183;-74
2022/06/05 00:18:18;;;;;;;1217.00;999.90;;;18.90;99.90;;;;;;5024609;28;20183;-72
2022/06/05 00:20:45;;;;;;;1215.10;999.90;;;18.90;99.90;;;;;;5031732;28;20190;-72
2022/06/05 00:23:11;;;;;;;1197.68;999.90;;;18.80;99.90;;;;;;5025907;28;20195;-73
2022/06/05 00:25:49;;;;;;;1197.07;999.90;;;18.90;99.90;;;;;;5029280;28;20689;-72
2022/06/05 00:28:41;;;;;;;1221.93;999.90;;;18.80;99.90;;;;;;5030225;28;20264;-73
2022/06/05 00:31:26;;;;;;;1223.43;999.90;;;18.70;99.90;;;;;;5031844;28;20230;-73
2022/06/05 00:33:52;;;;;;;1212.65;999.90;;;18.70;99.90;;;;;;5043924;28;20229;-73
2022/06/05 00:36:36;;;;;;;1196.07;999.90;;;18.90;99.90;;;;;;5030952;28;20257;-73
2022/06/05 00:39:08;;;;;;;1184.55;999.90;;;18.90;99.90;;;;;;5029730;28;20265;-73
2022/06/05 00:41:43;;;;;;;1198.10;999.90;;;18.90;99.90;;;;;;5032412;28;20256;-73
2022/06/05 00:44:14;;;;;;;1187.50;999.90;;;18.90;99.90;;;;;;5045784;28;20210;-73
2022/06/05 00:46:42;;;;;;;1181.18;999.90;;;19.00;99.90;;;;;;5028502;28;20274;-76
2022/06/05 00:49:10;;;;;;;1187.00;999.90;;;19.00;99.90;;;;;;5017072;28;20585;-73
2022/06/05 00:51:36;;;;;;;1167.28;999.90;;;18.90;99.90;;;;;;5028013;28;20182;-73
2022/06/05 00:54:02;;;;;;;1176.32;999.90;;;18.80;99.90;;;;;;5018523;28;20546;-73
2022/06/05 00:56:28;;;;;;;1185.63;999.90;;;18.70;99.90;;;;;;5029234;28;20245;-73
2022/06/05 00:58:54;;;;;;;1179.95;999.90;;;18.70;99.90;;;;;;5016672;28;20655;-74
2022/06/05 01:01:21;;;;;;;1167.75;999.90;;;18.70;99.90;;;;;;5030711;28;20244;-73
2022/06/05 01:03:47;;;;;;;1174.53;999.90;;;18.70;99.90;;;;;;5023179;28;20203;-73
2022/06/05 01:06:13;;;;;;;1189.47;999.90;;;18.60;99.90;;;;;;5016752;28;20648;-73
2022/06/05 01:08:40;;;;;;;1181.68;999.90;;;18.50;99.90;;;;;;5027293;28;20306;-74
2022/06/05 01:11:27;;;;;;;1175.35;999.90;;;18.60;99.90;;;;;;5028546;28;20210;-73
2022/06/05 01:14:03;;;;;;;1201.32;999.90;;;18.60;99.90;;;;;;5030639;28;20538;-74
2022/06/05 01:16:42;;;;;;;1187.82;999.90;;;18.50;99.90;;;;;;5014216;28;20186;-73
2022/06/05 01:19:38;;;;;;;1183.25;999.90;;;18.50;99.90;;;;;;5034413;28;20212;-74
2022/06/05 01:22:18;;;;;;;1206.20;999.90;;;18.60;99.90;;;;;;5028104;28;20174;-73
2022/06/05 01:25:05;;;;;;;1203.22;999.90;;;18.40;99.90;;;;;;5041301;28;20212;-74
2022/06/05 01:27:36;;;;;;;1210.47;999.90;;;18.30;99.90;;;;;;5026733;28;20252;-74
2022/06/05 01:30:23;;;;;;;1187.93;999.90;;;18.30;99.90;;;;;;5027179;28;20175;-74
2022/06/05 01:33:08;;;;;;;1191.05;999.90;;;18.40;99.90;;;;;;5014312;28;20210;-74
2022/06/05 01:35:40;;;;;;;1214.60;999.90;;;18.30;99.90;;;;;;5043110;28;20232;-74
2022/06/05 01:38:21;;;;;;;1191.00;999.90;;;18.30;99.90;;;;;;5030940;28;20576;-73
2022/06/05 01:40:53;;;;;;;1188.93;999.90;;;18.20;99.90;;;;;;5038323;28;20242;-74
2022/06/05 01:43:23;;;;;;;1192.68;999.90;;;18.30;99.90;;;;;;5025028;28;20188;-73
2022/06/05 01:46:08;;;;;;;1175.13;999.90;;;18.30;99.90;;;;;;5028709;28;20186;-74
2022/06/05 01:48:43;;;;;;;1196.35;999.90;;;18.20;99.90;;;;;;5017246;28;20269;-74
2022/06/05 01:51:17;;;;;;;1195.43;999.90;;;18.20;99.90;;;;;;5030807;28;20186;-74
2022/06/05 01:53:46;;;;;;;1190.18;999.90;;;18.30;99.90;;;;;;5028241;28;20220;-75
2022/06/05 01:56:36;;;;;;;1176.05;999.90;;;18.20;99.90;;;;;;5030502;28;20210;-73
2022/06/05 01:59:37;;;;;;;1191.55;999.90;;;18.20;99.90;;;;;;5025952;28;20206;-74
2022/06/05 02:02:05;;;;;;;1182.85;999.90;;;18.20;99.90;;;;;;5029859;28;20198;-75
2022/06/05 02:04:40;;;;;;;1175.03;999.90;;;18.20;99.90;;;;;;5021358;28;20237;-74
2022/06/05 02:07:26;;;;;;;1162.05;999.90;;;18.20;99.90;;;;;;5028095;28;20261;-74
2022/06/05 02:09:59;;;;;;;1153.50;999.90;;;18.20;99.90;;;;;;5021155;28;20183;-74
2022/06/05 02:12:26;;;;;;;1156.63;999.90;;;18.20;99.90;;;;;;5026850;28;20651;-74
2022/06/05 02:14:52;;;;;;;1138.72;999.90;;;18.30;99.90;;;;;;5020093;28;20589;-74
2022/06/05 02:17:18;;;;;;;1121.82;999.90;;;18.40;99.90;;;;;;5027918;28;20659;-75
2022/06/05 02:19:44;;;;;;;1020.90;946.33;;;18.50;99.90;;;;;;5024407;28;20197;-75
2022/06/05 02:22:49;;;;;;;1013.05;939.63;;;18.50;99.90;;;;;;5021177;28;20254;-75
2022/06/05 02:25:19;;;;;;;1073.25;991.50;;;18.50;99.90;;;;;;5028500;28;20196;-77
2022/06/05 02:27:45;;;;;;;1045.38;968.63;;;18.30;99.90;;;;;;5012761;28;20581;-74
2022/06/05 02:30:13;;;;;;;1032.22;956.22;;;18.30;99.90;;;;;;5030187;28;20182;-74
2022/06/05 02:33:03;;;;;;;1023.33;948.58;;;18.20;99.90;;;;;;5026323;28;20561;-75
2022/06/05 02:35:31;;;;;;;1013.92;940.15;;;18.20;99.90;;;;;;5041975;28;20589;-74
2022/06/05 02:38:18;;;;;;;1020.97;947.80;;;18.20;99.90;;;;;;5049579;28;20659;-74
2022/06/05 02:40:50;;;;;;;1036.65;960.85;;;18.20;99.90;;;;;;5049969;28;20209;-75
2022/06/05 02:43:34;;;;;;;1002.72;930.83;;;18.20;99.90;;;;;;5048973;28;20183;-75
2022/06/05 02:46:04;;;;;;;1044.72;968.03;;;18.20;99.90;;;;;;5034817;28;20698;-74
2022/06/05 02:49:02;;;;;;;989.30;918.08;;;18.10;99.90;;;;;;5032583;28;20214;-74
2022/06/05 02:51:34;;;;;;;1067.55;987.20;;;18.00;99.90;;;;;;5037229;28;20236;-74
2022/06/05 02:54:01;;;;;;;1056.47;977.55;;;18.00;99.90;;;;;;5050211;28;20178;-74
2022/06/05 02:56:31;;;;;;;1025.72;951.08;;;18.00;99.90;;;;;;5031435;28;20193;-74
2022/06/05 02:59:01;;;;;;;1014.88;941.60;;;17.90;99.90;;;;;;5032390;28;20730;-74
2022/06/05 03:04:12;;;;;;;1029.88;954.83;;;18.00;99.90;;;;;;5024672;28;20203;-75
2022/06/05 03:06:41;;;;;;;1011.15;938.22;;;18.00;99.90;;;;;;5049493;28;20657;-74
2022/06/05 03:09:07;;;;;;;1034.40;958.30;;;18.00;99.90;;;;;;5034353;28;20281;-74
2022/06/05 03:11:33;;;;;;;1046.82;969.85;;;17.90;99.90;;;;;;5033321;28;20199;-75
2022/06/05 03:13:59;;;;;;;1027.88;953.35;;;17.80;99.90;;;;;;5032331;28;20643;-75
2022/06/05 03:16:28;;;;;;;1023.30;948.95;;;17.80;99.90;;;;;;5031553;28;20652;-75
2022/06/05 03:18:53;;;;;;;1025.53;951.72;;;17.70;99.90;;;;;;5020709;28;20268;-74
2022/06/05 03:21:19;;;;;;;1042.53;965.40;;;17.70;99.90;;;;;;5018509;28;20214;-75
2022/06/05 03:23:45;;;;;;;1039.38;963.35;;;17.70;99.90;;;;;;5030101;28;20189;-75
2022/06/05 03:26:12;;;;;;;1027.30;952.72;;;17.70;99.90;;;;;;5029448;28;20255;-74
2022/06/05 03:28:38;;;;;;;1046.38;969.53;;;17.70;99.90;;;;;;5024656;28;20250;-75
2022/06/05 03:31:10;;;;;;;1064.32;985.72;;;17.70;99.90;;;;;;5016050;28;20193;-74
2022/06/05 03:33:38;;;;;;;1083.15;995.17;;;17.70;99.90;;;;;;5031675;28;20550;-75
2022/06/05 03:36:10;;;;;;;1059.53;980.55;;;17.80;99.90;;;;;;5029838;28;20183;-75
2022/06/05 03:38:35;;;;;;;1041.72;965.47;;;17.80;99.90;;;;;;5033796;28;20195;-75
2022/06/05 03:41:01;;;;;;;1057.20;979.78;;;17.80;99.90;;;;;;5013626;28;20187;-75
2022/06/05 03:43:27;;;;;;;1039.43;963.38;;;17.80;99.90;;;;;;5041891;28;20179;-74
2022/06/05 03:46:09;;;;;;;1049.40;972.67;;;17.80;99.90;;;;;;5025265;28;20247;-76
2022/06/05 03:48:35;;;;;;;1046.53;969.72;;;17.80;99.90;;;;;;5019939;28;20206;-76
2022/06/05 03:51:10;;;;;;;1018.13;945.17;;;17.80;99.90;;;;;;5032187;28;20182;-75
2022/06/05 03:53:36;;;;;;;1004.63;932.67;;;17.90;99.90;;;;;;5032443;28;20185;-75
2022/06/05 03:56:06;;;;;;;984.35;914.90;;;17.80;99.90;;;;;;5033094;28;20194;-74
2022/06/05 03:58:31;;;;;;;990.97;920.42;;;17.80;99.90;;;;;;5043517;28;20636;-75
2022/06/05 04:00:57;;;;;;;988.47;918.38;;;17.80;99.90;;;;;;5043729;28;20252;-74
2022/06/05 04:03:23;;;;;;;990.05;920.38;;;17.80;99.90;;;;;;5031636;28;20186;-75
2022/06/05 04:05:48;;;;;;;943.90;878.95;;;17.90;99.90;;;;;;5022788;28;20282;-75
2022/06/05 04:08:16;;;;;;;910.00;848.13;;;18.00;99.90;;;;;;5025645;28;20214;-75
2022/06/05 04:10:42;;;;;;;906.63;845.50;;;18.10;99.90;;;;;;5046836;28;20183;-76
2022/06/05 04:13:08;;;;;;;888.63;828.33;;;18.00;99.90;;;;;;5031823;28;20189;-76
2022/06/05 04:15:39;;;;;;;890.90;831.15;;;18.00;99.90;;;;;;5012197;28;20192;-76
2022/06/05 04:18:05;;;;;;;878.15;819.47;;;18.00;99.90;;;;;;5018282;28;20178;-75
2022/06/05 04:20:32;;;;;;;835.15;780.30;;;18.00;99.90;;;;;;5014443;28;20183;-76
2022/06/05 04:22:58;;;;;;;822.28;768.63;;;17.90;99.90;;;;;;5031221;28;20175;-76
2022/06/05 04:25:24;;;;;;;795.20;744.38;;;18.00;99.90;;;;;;5030453;28;20715;-76
2022/06/05 04:27:51;;;;;;;731.72;685.85;;;18.10;99.90;;;;;;5019650;28;20233;-75
2022/06/05 04:30:17;;;;;;;761.60;712.70;;;18.10;99.90;;;;;;5047642;28;20191;-75
2022/06/05 04:32:42;;;;;;;772.65;723.63;;;18.00;99.90;;;;;;5015149;28;20245;-76
2022/06/05 04:35:09;;;;;;;751.30;703.90;;;18.00;99.90;;;;;;5027220;28;20265;-76
2022/06/05 04:37:34;;;;;;;690.58;647.08;;;18.00;99.90;;;;;;5031454;28;20183;-76
2022/06/05 04:40:00;;;;;;;740.42;693.85;;;18.10;99.90;;;;;;5023526;28;20532;-76
2022/06/05 04:42:26;;;;;;;695.60;652.28;;;18.00;99.90;;;;;;5031377;28;20245;-75
2022/06/05 04:44:51;;;;;;;753.80;706.70;;;17.90;99.90;;;;;;5028877;28;20269;-76
2022/06/05 04:47:17;;;;;;;781.70;730.58;;;17.90;99.90;;;;;;5031255;28;20274;-77
2022/06/05 04:49:43;;;;;;;722.60;676.75;;;17.90;99.90;;;;;;5033287;28;20249;-75
2022/06/05 04:52:08;;;;;;;723.50;677.83;;;17.90;99.90;;;;;;5012664;28;20202;-75
2022/06/05 04:54:34;;;;;;;783.17;732.67;;;17.90;99.90;;;;;;5044272;28;20210;-75
2022/06/05 04:57:00;;;;;;;777.60;727.78;;;17.90;99.90;;;;;;5020170;28;20190;-76
2022/06/05 04:59:26;;;;;;;729.88;682.83;;;18.00;99.90;;;;;;5027122;28;20194;-75
2022/06/05 05:01:51;;;;;;;726.25;680.60;;;18.10;99.90;;;;;;5013385;28;20226;-75
2022/06/05 05:04:17;;;;;;;700.22;656.90;;;18.20;99.90;;;;;;5030266;28;20241;-76
2022/06/05 05:06:45;;;;;;;669.65;627.97;;;18.20;99.90;;;;;;5024612;28;20183;-76
2022/06/05 05:09:11;;;;;;;734.90;689.08;;;18.10;99.90;;;;;;5020721;28;20273;-76
2022/06/05 05:11:37;;;;;;;736.45;687.22;;;18.00;99.90;;;;;;5028627;28;20275;-74
2022/06/05 05:14:03;;;;;;;734.67;688.30;;;18.00;99.90;;;;;;5028504;28;20182;-76
2022/06/05 05:16:29;;;;;;;717.97;672.95;;;18.00;99.90;;;;;;5045447;28;20174;-75
2022/06/05 05:18:55;;;;;;;660.00;619.22;;;18.10;99.90;;;;;;5031912;28;20636;-73
2022/06/05 05:21:24;;;;;;;649.05;609.83;;;18.20;99.90;;;;;;5021464;28;20187;-73
2022/06/05 05:23:50;;;;;;;602.42;566.05;;;18.20;99.90;;;;;;5030622;28;20193;-72
2022/06/05 05:26:23;;;;;;;551.15;518.97;;;18.10;99.90;;;;;;5027055;28;20172;-75
2022/06/05 05:28:49;;;;;;;612.20;574.97;;;18.20;99.90;;;;;;5016440;28;20544;-73
2022/06/05 05:31:24;;;;;;;558.38;524.75;;;18.20;99.90;;;;;;5033969;28;20195;-75
2022/06/05 05:33:51;;;;;;;550.03;517.38;;;18.20;99.90;;;;;;5018455;28;20171;-73
2022/06/05 05:36:18;;;;;;;455.77;429.10;;;18.50;99.90;;;;;;5025753;28;20190;-73
2022/06/05 05:44:13;;;;;;;343.95;323.92;;;18.80;99.90;;;;;;5019326;28;20286;-71
2022/06/05 05:46:40;;;;;;;327.67;308.80;;;18.70;99.90;;;;;;5042317;28;20640;-71
2022/06/05 05:49:05;;;;;;;311.48;293.00;;;18.60;99.90;;;;;;5036661;28;20667;-71
2022/06/05 05:51:31;;;;;;;285.20;268.50;;;18.60;99.90;;;;;;5019873;28;20270;-73
2022/06/05 05:53:57;;;;;;;294.98;277.95;;;18.70;99.90;;;;;;5019423;28;20197;-72
2022/06/05 05:56:22;;;;;;;306.65;289.10;;;18.90;99.90;;;;;;5029608;28;20190;-71
2022/06/05 05:58:48;;;;;;;306.55;288.75;;;19.00;99.90;;;;;;5038837;28;20648;-71
2022/06/05 06:01:14;;;;;;;271.60;256.13;;;19.10;99.90;;;;;;5017631;28;20281;-73
2022/06/05 06:03:40;;;;;;;271.63;256.05;;;19.10;99.90;;;;;;5030326;28;20225;-72
2022/06/05 06:06:05;;;;;;;290.75;274.42;;;19.10;99.90;;;;;;5028722;28;20261;-72
2022/06/05 06:08:32;;;;;;;266.13;251.40;;;19.20;99.90;;;;;;5031429;28;20218;-72
2022/06/05 06:10:58;;;;;;;316.58;299.02;;;19.40;99.90;;;;;;5026784;28;20182;-73
2022/06/05 06:13:23;;;;;;;322.42;305.10;;;19.50;99.90;;;;;;5026105;28;20191;-71
2022/06/05 06:15:49;;;;;;;281.95;266.83;;;19.70;99.90;;;;;;5020028;28;20186;-74
2022/06/05 06:18:16;;;;;;;254.20;240.40;;;20.00;99.90;;;;;;5016694;28;20644;-75
2022/06/05 06:20:42;;;;;;;247.65;234.18;;;20.00;99.90;;;;;;5020995;28;20179;-72
2022/06/05 06:23:07;;;;;;;256.15;241.95;;;20.10;99.90;;;;;;5044457;28;20187;-79
2022/06/05 06:25:35;;;;;;;242.50;229.10;;;20.10;99.90;;;;;;5025408;28;20191;-74
2022/06/05 06:28:01;;;;;;;248.68;233.82;;;20.10;99.90;;;;;;5023480;28;20690;-74
2022/06/05 06:30:26;;;;;;;224.13;211.18;;;20.20;99.90;;;;;;5029273;28;20195;-74
2022/06/05 06:32:52;;;;;;;208.80;196.68;;;20.40;99.90;;;;;;5027513;28;20191;-73
2022/06/05 06:35:18;;;;;;;241.98;228.35;;;20.80;99.90;;;;;;5027288;28;20186;-73
2022/06/05 06:37:46;;;;;;;217.32;205.23;;;20.80;99.90;;;;;;5021209;28;20203;-74
2022/06/05 06:40:12;;;;;;;211.98;200.10;;;21.10;99.90;;;;;;5029100;28;20198;-74
2022/06/05 06:42:38;;;;;;;186.77;176.32;;;21.30;99.90;;;;;;5007022;28;20184;-74
2022/06/05 06:45:07;;;;;;;193.32;182.77;;;21.30;99.90;;;;;;5032052;28;20257;-74
2022/06/05 06:47:33;;;;;;;202.85;191.90;;;21.10;99.90;;;;;;5023682;28;20179;-75
2022/06/05 06:49:59;;;;;;;176.18;166.65;;;21.60;99.90;;;;;;5042073;28;20688;-75
2022/06/05 06:52:25;;;;;;;191.95;181.60;;;22.60;99.90;;;;;;5029611;28;20183;-75
2022/06/05 06:54:52;;;;;;;652.55;616.95;;;23.50;99.90;;;;;;5028206;28;20265;-69
2022/06/05 06:57:18;;;;;;;670.22;634.05;;;23.90;99.90;;;;;;5029832;28;20198;-76
2022/06/05 06:59:44;;;;;;;665.33;629.90;;;23.60;99.90;;;;;;5039651;28;20560;-74
2022/06/05 07:02:09;;;;;;;685.67;648.30;;;23.30;99.90;;;;;;5004132;28;20191;-75
2022/06/05 07:04:35;;;;;;;688.70;651.25;;;22.90;99.90;;;;;;5034283;28;20617;-74
2022/06/05 07:07:01;;;;;;;611.55;579.15;;;22.40;99.90;;;;;;5028471;28;20692;-75
2022/06/05 07:09:27;;;;;;;488.58;463.13;;;22.40;99.90;;;;;;5035592;28;20230;-84
2022/06/05 07:11:52;;;;;;;465.52;441.33;;;22.40;99.90;;;;;;5029741;28;20183;-82
2022/06/05 07:14:18;;;;;;;363.70;344.88;;;22.70;99.90;;;;;;5024661;28;20672;-84
2022/06/05 07:16:44;;;;;;;430.63;409.20;;;22.80;99.90;;;;;;5023777;28;20236;-83
2022/06/05 07:19:10;;;;;;;400.77;380.20;;;22.80;99.90;;;;;;5026186;28;20540;-79
2022/06/05 07:21:36;;;;;;;302.55;286.30;;;22.90;99.90;;;;;;5020551;28;20182;-75
2022/06/05 07:24:02;;;;;;;285.17;269.77;;;23.00;99.90;;;;;;5024147;28;20179;-73
2022/06/05 07:26:31;;;;;;;343.15;325.92;;;23.10;99.90;;;;;;5027456;28;20187;-76
2022/06/05 07:28:58;;;;;;;450.58;427.67;;;22.90;99.90;;;;;;5033348;28;20202;-72
2022/06/05 07:31:27;;;;;;;481.67;457.65;;;22.60;99.90;;;;;;5032434;28;20190;-83
2022/06/05 07:33:53;;;;;;;466.92;443.55;;;22.40;99.90;;;;;;5033750;28;20170;-77
2022/06/05 07:36:20;;;;;;;301.73;285.77;;;22.50;99.90;;;;;;5047405;28;20256;-78
2022/06/05 07:38:47;;;;;;;366.95;348.85;;;23.10;99.90;;;;;;5047130;28;20195;-77
2022/06/05 07:41:26;;;;;;;395.98;375.70;;;23.60;99.90;;;;;;5033087;28;20674;-77
2022/06/05 07:43:52;;;;;;;408.52;388.33;;;23.80;99.90;;;;;;5034180;28;20170;-75
2022/06/05 07:46:18;;;;;;;407.00;386.23;;;24.00;99.90;;;;;;5028834;28;20186;-77
2022/06/05 07:48:45;;;;;;;504.40;480.02;;;24.30;99.90;;;;;;5047885;28;20218;-74
2022/06/05 07:56:46;;;;;;;702.85;664.33;;;26.80;99.90;;;;;;5014260;28;20567;-78
2022/06/05 07:59:11;;;;;;;485.15;462.38;;;26.80;99.90;;;;;;5020083;28;20186;-83
2022/06/05 08:01:37;;;;;;;374.17;356.80;;;26.50;99.90;;;;;;5021976;28;20206;-85
2022/06/05 08:04:04;;;;;;;405.02;387.08;;;26.00;99.90;;;;;;5003624;28;20182;-84
2022/06/05 08:06:34;;;;;;;484.08;462.13;;;25.60;99.90;;;;;;5020420;28;20650;-85
2022/06/05 08:09:01;;;;;;;523.75;499.48;;;24.80;99.90;;;;;;5004375;28;20257;-86
2022/06/05 08:11:27;;;;;;;531.03;505.85;;;24.80;99.90;;;;;;5013678;28;20209;-86
2022/06/05 08:13:52;;;;;;;526.05;501.58;;;25.60;99.90;;;;;;5019745;28;20215;-84
2022/06/05 08:16:18;;;;;;;548.45;522.80;;;25.20;99.90;;;;;;5026383;28;20195;-85
2022/06/05 08:18:43;;;;;;;479.17;457.30;;;24.90;99.90;;;;;;5030557;28;20194;-86
2022/06/05 08:21:09;;;;;;;623.17;592.20;;;24.40;99.90;;;;;;5025735;28;20660;-88
2022/06/05 08:23:35;;;;;;;654.65;621.15;;;24.30;99.90;;;;;;5031545;28;20190;-77
2022/06/05 08:26:01;;;;;;;706.03;668.65;;;24.30;99.90;;;;;;5028561;28;20230;-78
2022/06/05 08:28:27;;;;;;;705.10;667.50;;;24.20;99.90;;;;;;5029276;28;20265;-73
2022/06/05 08:30:53;;;;;;;672.08;637.08;;;23.60;99.90;;;;;;5010412;28;20202;-75
2022/06/05 08:33:20;;;;;;;648.65;615.15;;;23.30;99.90;;;;;;5014320;28;20286;-75
2022/06/05 08:35:49;;;;;;;533.72;507.75;;;23.10;99.90;;;;;;5024372;28;20186;-76
2022/06/05 08:41:27;;;;;;;326.73;311.00;;;23.40;99.90;;;;;;5025267;28;20541;-76
2022/06/05 08:44:21;;;;;;;314.33;299.08;;;23.40;99.90;;;;;;5018534;28;20179;-76
2022/06/05 08:46:56;;;;;;;325.30;309.27;;;23.30;99.90;;;;;;5029854;28;20187;-76
2022/06/05 08:49:30;;;;;;;230.80;218.68;;;23.00;99.90;;;;;;5017481;28;20365;-76
2022/06/05 08:52:05;;;;;;;198.60;187.50;;;23.00;99.90;;;;;;5014887;28;20687;-76
2022/06/05 08:54:49;;;;;;;184.45;174.73;;;22.90;99.90;;;;;;5022717;28;20274;-76
2022/06/05 08:57:21;;;;;;;198.23;187.50;;;22.80;99.90;;;;;;5032275;28;20582;-76
2022/06/05 08:59:57;;;;;;;169.77;160.10;;;22.50;99.90;;;;;;5020585;28;20240;-76
2022/06/05 09:02:27;;;;;;;174.90;165.20;;;22.40;99.90;;;;;;5032646;28;20623;-76
2022/06/05 09:05:08;;;;;;;257.10;243.95;;;22.10;99.90;;;;;;5015575;28;20180;-77
2022/06/05 09:07:43;;;;;;;399.80;381.30;;;21.90;99.90;;;;;;5022239;28;20201;-76
2022/06/05 09:10:18;;;;;;;590.50;558.95;;;21.80;99.90;;;;;;5031423;28;20181;-76
2022/06/05 09:12:59;;;;;;;656.67;619.95;;;21.70;99.90;;;;;;5043005;28;20183;-76
2022/06/05 09:15:30;;;;;;;594.55;563.60;;;21.50;99.90;;;;;;5012230;28;20234;-76
2022/06/05 09:18:00;;;;;;;722.00;679.92;;;21.30;99.90;;;;;;5024970;28;20183;-76
2022/06/05 09:20:55;;;;;;;723.15;681.17;;;21.50;99.90;;;;;;5016598;28;20183;-76
2022/06/05 09:23:39;;;;;;;645.50;610.00;;;21.50;99.90;;;;;;5026066;28;20242;-76
2022/06/05 09:26:19;;;;;;;699.13;659.10;;;21.40;99.90;;;;;;5030714;28;20194;-77
2022/06/05 09:28:50;;;;;;;708.30;667.85;;;21.50;99.90;;;;;;5046478;28;20760;-76
2022/06/05 09:31:36;;;;;;;705.70;664.83;;;21.50;99.90;;;;;;5031222;28;20655;-76
2022/06/05 09:34:12;;;;;;;679.20;641.08;;;21.50;99.90;;;;;;5031689;28;20216;-76
2022/06/05 09:36:41;;;;;;;673.58;635.50;;;21.50;99.90;;;;;;5025837;28;20175;-76
2022/06/05 09:39:30;;;;;;;716.08;674.28;;;21.50;99.90;;;;;;5031536;28;20183;-76
2022/06/05 09:42:09;;;;;;;757.88;712.40;;;21.70;99.90;;;;;;5028981;28;20233;-76
2022/06/05 09:45:04;;;;;;;811.67;761.08;;;21.70;99.90;;;;;;5051364;28;20639;-76
2022/06/05 09:47:39;;;;;;;796.85;747.50;;;21.70;99.90;;;;;;5032900;28;20240;-76
2022/06/05 09:50:25;;;;;;;865.55;809.17;;;21.50;99.90;;;;;;5050911;28;20181;-76
2022/06/05 09:52:51;;;;;;;848.70;794.67;;;21.30;99.90;;;;;;5035492;28;20662;-76
2022/06/05 09:55:19;;;;;;;848.17;794.03;;;21.10;99.90;;;;;;5034145;28;20201;-76
2022/06/05 10:00:53;;;;;;;747.30;702.50;;;21.10;99.90;;;;;;5035649;28;20217;-77
2022/06/05 10:03:28;;;;;;;781.92;734.08;;;21.10;99.90;;;;;;5035087;28;20591;-76
2022/06/05 10:06:19;;;;;;;757.00;711.22;;;21.00;99.90;;;;;;5050734;28;20269;-77
2022/06/05 10:08:48;;;;;;;718.15;675.97;;;21.00;99.90;;;;;;5049945;28;20568;-78
2022/06/05 10:11:42;;;;;;;774.88;727.05;;;20.80;99.90;;;;;;5033736;28;20181;-79
2022/06/05 10:14:25;;;;;;;820.53;766.97;;;20.70;99.90;;;;;;5038252;28;20201;-78
2022/06/05 10:17:05;;;;;;;935.80;870.17;;;20.50;99.90;;;;;;5034468;28;20634;-78
2022/06/05 10:19:52;;;;;;;1017.85;941.92;;;20.40;99.90;;;;;;5027295;28;20179;-78
2022/06/05 10:22:26;;;;;;;961.83;892.20;;;20.30;99.90;;;;;;5017568;28;20648;-77
2022/06/05 10:25:03;;;;;;;986.50;915.70;;;20.20;99.90;;;;;;5034007;28;20517;-79
2022/06/05 10:27:30;;;;;;;956.78;889.72;;;20.20;99.90;;;;;;5017789;28;20199;-77
2022/06/05 10:30:00;;;;;;;987.35;916.00;;;20.20;99.90;;;;;;5032323;28;20182;-77
2022/06/05 10:32:47;;;;;;;1013.03;939.20;;;20.20;99.90;;;;;;5018388;28;20198;-77
2022/06/05 10:35:25;;;;;;;1007.90;935.00;;;20.10;99.90;;;;;;5025165;28;20236;-77
2022/06/05 10:38:37;;;;;;;1003.50;931.05;;;20.10;99.90;;;;;;5017183;28;20233;-78
2022/06/05 10:41:31;;;;;;;966.97;899.13;;;20.10;99.90;;;;;;5024171;28;20631;-77
2022/06/05 10:44:12;;;;;;;961.70;895.08;;;20.00;99.90;;;;;;5015619;28;20215;-77
2022/06/05 10:46:46;;;;;;;979.72;909.95;;;20.00;99.90;;;;;;5020618;28;20182;-77
2022/06/05 10:49:31;;;;;;;978.88;909.85;;;20.00;99.90;;;;;;5033309;28;20210;-77
2022/06/05 10:52:14;;;;;;;906.53;846.47;;;20.00;99.90;;;;;;5023704;28;20179;-77
2022/06/05 10:54:58;;;;;;;890.45;832.25;;;19.90;99.90;;;;;;5023220;28;20224;-77
2022/06/05 10:57:30;;;;;;;888.85;830.33;;;19.90;99.90;;;;;;5032011;28;20182;-77
2022/06/05 11:00:05;;;;;;;861.45;805.85;;;19.90;99.90;;;;;;5034512;28;20178;-77
2022/06/05 11:02:40;;;;;;;836.58;782.72;;;19.90;99.90;;;;;;5024189;28;20202;-77
2022/06/05 11:05:24;;;;;;;771.90;723.88;;;19.80;99.90;;;;;;5044936;28;20269;-76
2022/06/05 11:08:03;;;;;;;707.33;664.30;;;19.80;99.90;;;;;;5027385;28;20214;-76
2022/06/05 11:14:22;;;;;;;592.92;558.28;;;19.80;99.90;;;;;;5031797;28;20217;-76
2022/06/05 11:16:53;;;;;;;608.50;571.42;;;19.80;99.90;;;;;;5031784;28;20233;-77
2022/06/05 11:19:37;;;;;;;590.33;555.40;;;19.80;99.90;;;;;;5023556;28;20253;-76
2022/06/05 11:22:09;;;;;;;522.10;491.98;;;19.70;99.90;;;;;;5025767;28;20194;-76
2022/06/05 11:24:49;;;;;;;479.45;450.80;;;19.70;99.90;;;;;;5046026;28;20179;-77
2022/06/05 11:27:31;;;;;;;390.30;366.85;;;19.60;99.90;;;;;;5030580;28;20706;-76
2022/06/05 11:30:06;;;;;;;420.33;395.70;;;19.70;99.90;;;;;;5033899;28;20183;-77
2022/06/05 11:32:47;;;;;;;424.85;399.17;;;19.80;99.90;;;;;;5049184;28;20175;-76
2022/06/05 11:35:35;;;;;;;395.45;371.77;;;19.80;99.90;;;;;;5047867;28;20185;-76
2022/06/05 11:38:09;;;;;;;388.02;364.08;;;19.60;99.90;;;;;;5048292;28;20627;-77
2022/06/05 11:41:04;;;;;;;392.10;368.13;;;19.50;99.90;;;;;;5023337;28;20217;-77
2022/06/05 11:43:39;;;;;;;413.58;387.08;;;19.50;99.90;;;;;;5032158;28;20214;-77
2022/06/05 11:46:10;;;;;;;353.83;331.35;;;19.50;99.90;;;;;;5031891;28;20175;-77
2022/06/05 11:48:51;;;;;;;381.30;356.55;;;19.50;99.90;;;;;;5033344;28;20306;-77
2022/06/05 11:51:30;;;;;;;408.30;382.55;;;19.60;99.90;;;;;;5032321;28;20179;-76
2022/06/05 11:54:13;;;;;;;371.30;347.48;;;19.70;99.90;;;;;;5036582;28;20189;-76
2022/06/05 11:57:04;;;;;;;383.08;358.77;;;19.60;99.90;;;;;;5031762;28;20209;-76
2022/06/05 11:59:44;;;;;;;384.88;359.70;;;19.70;99.90;;;;;;5032722;28;20662;-77
2022/06/05 12:02:30;;;;;;;388.65;363.88;;;19.60;99.90;;;;;;5026855;28;20194;-76
2022/06/05 12:05:14;;;;;;;400.70;375.55;;;19.60;99.90;;;;;;5043810;28;20747;-77
2022/06/05 12:07:41;;;;;;;386.95;362.42;;;19.60;99.90;;;;;;5031099;28;20183;-77
2022/06/05 12:10:19;;;;;;;381.15;357.05;;;19.70;99.90;;;;;;5017586;28;20633;-77
2022/06/05 12:13:10;;;;;;;400.08;374.80;;;19.70;99.90;;;;;;5030722;28;20667;-77
2022/06/05 12:16:00;;;;;;;389.98;365.20;;;19.60;99.90;;;;;;5027915;28;20191;-82
2022/06/05 12:18:49;;;;;;;389.63;364.30;;;19.60;99.90;;;;;;5020207;28;20196;-77
2022/06/05 12:21:27;;;;;;;389.67;364.05;;;19.50;99.90;;;;;;5034820;28;20183;-77
2022/06/05 12:24:10;;;;;;;426.35;399.23;;;19.50;99.90;;;;;;5038492;28;20221;-76
2022/06/05 12:26:53;;;;;;;362.05;339.23;;;19.40;99.90;;;;;;5030779;28;20183;-77
2022/06/05 12:29:25;;;;;;;384.38;359.77;;;19.40;99.90;;;;;;5047212;28;20201;-75
2022/06/05 12:32:05;;;;;;;381.58;356.85;;;19.40;99.90;;;;;;5021223;28;20183;-76
2022/06/05 12:34:51;;;;;;;384.65;360.00;;;19.40;99.90;;;;;;5046641;28;20585;-75
2022/06/05 12:37:36;;;;;;;374.65;350.63;;;19.40;99.90;;;;;;5013923;28;20270;-78
2022/06/05 12:40:04;;;;;;;415.45;389.20;;;19.50;99.90;;;;;;5026256;28;20179;-77
2022/06/05 12:42:44;;;;;;;380.48;356.33;;;19.50;99.90;;;;;;5021539;28;20181;-76
2022/06/05 12:45:29;;;;;;;375.13;351.35;;;19.40;99.90;;;;;;5031092;28;20533;-77
2022/06/05 12:48:08;;;;;;;392.20;367.55;;;19.50;99.90;;;;;;5032347;28;20237;-77
2022/06/05 12:51:07;;;;;;;362.75;339.90;;;19.70;99.90;;;;;;5023368;28;20641;-76
2022/06/05 12:54:01;;;;;;;387.73;363.13;;;19.70;99.90;;;;;;5028248;28;20182;-77
2022/06/05 12:56:50;;;;;;;386.17;362.10;;;19.80;99.90;;;;;;5020183;28;20640;-75
2022/06/05 12:59:33;;;;;;;399.80;374.92;;;19.70;99.90;;;;;;5025703;28;20183;-75